Time;durP1;ratioP1;P1;durP2;ratioP2;P2;SDS_P1;SDS_P2;PMS_P1;PMS_P2;Temp;Humidity;BMP_temperature;BMP_pressure;BME280_temperature;BME280_humidity;BME280_pressure;Samples;Min_cycle;Max_cycle;Signal;HPM_P1;HPM_P2
2024/01/27 00:02:21;;;;;;;20.57;3.07;;;4.70;55.60;;;;;;5048314;28;20467;-80
2024/01/27 00:04:48;;;;;;;23.70;2.90;;;4.70;51.80;;;;;;5047303;28;20250;-81
2024/01/27 00:07:14;;;;;;;19.05;2.75;;;4.60;56.40;;;;;;5048094;28;20194;-80
2024/01/27 00:09:40;;;;;;;26.00;2.97;;;4.70;55.30;;;;;;5030573;28;20170;-80
2024/01/27 00:12:06;;;;;;;20.80;2.55;;;4.60;58.10;;;;;;5048760;28;20212;-81
2024/01/27 00:14:32;;;;;;;29.70;2.78;;;4.60;58.90;;;;;;5047726;28;20643;-81
2024/01/27 00:16:58;;;;;;;18.77;2.53;;;4.60;65.30;;;;;;5048067;28;20196;-80
2024/01/27 00:19:23;;;;;;;24.30;3.10;;;4.40;68.40;;;;;;5047755;28;20166;-81
2024/01/27 00:21:49;;;;;;;25.40;3.37;;;4.40;76.20;;;;;;5048341;28;20201;-79
2024/01/27 00:24:15;;;;;;;25.77;3.20;;;4.50;68.90;;;;;;5030273;28;20174;-80
2024/01/27 00:26:41;;;;;;;18.33;2.58;;;4.50;61.30;;;;;;5048120;28;20189;-80
2024/01/27 00:29:07;;;;;;;20.55;3.30;;;4.40;69.30;;;;;;5048907;28;20268;-80
2024/01/27 00:31:33;;;;;;;21.90;2.67;;;4.50;70.40;;;;;;5048311;28;20173;-80
2024/01/27 00:33:58;;;;;;;21.97;2.90;;;4.40;67.70;;;;;;5048196;28;20162;-80
2024/01/27 00:36:24;;;;;;;30.03;3.90;;;4.40;69.50;;;;;;5048813;28;20162;-80
2024/01/27 00:38:50;;;;;;;28.53;3.10;;;4.40;72.70;;;;;;5048918;28;20189;-80
2024/01/27 00:41:19;;;;;;;21.97;2.77;;;4.30;74.10;;;;;;5048157;28;20189;-80
2024/01/27 00:43:45;;;;;;;22.58;3.80;;;4.30;76.10;;;;;;5048638;28;20164;-80
2024/01/27 00:46:11;;;;;;;24.63;3.28;;;4.20;81.00;;;;;;5047995;28;20166;-81
2024/01/27 00:48:36;;;;;;;22.17;3.00;;;4.20;80.40;;;;;;5048623;28;20197;-80
2024/01/27 00:51:02;;;;;;;25.47;3.30;;;4.10;85.60;;;;;;5029895;28;20170;-81
2024/01/27 00:53:28;;;;;;;17.37;3.13;;;4.00;93.80;;;;;;5047420;28;20178;-80
2024/01/27 00:55:53;;;;;;;20.57;2.73;;;3.90;96.20;;;;;;5047633;28;20166;-81
2024/01/27 00:58:19;;;;;;;21.87;3.63;;;3.90;96.10;;;;;;5046843;28;20190;-81
2024/01/27 01:00:45;;;;;;;21.83;3.20;;;3.90;96.00;;;;;;5029594;28;20194;-80
2024/01/27 01:03:11;;;;;;;22.83;3.13;;;3.80;95.60;;;;;;5047596;28;20168;-81
2024/01/27 01:05:37;;;;;;;22.73;3.10;;;3.80;97.40;;;;;;5047224;28;20415;-80
2024/01/27 01:08:03;;;;;;;20.83;3.23;;;3.70;97.30;;;;;;5047403;28;20550;-81
2024/01/27 01:10:29;;;;;;;22.70;3.10;;;3.60;98.60;;;;;;5046420;28;20174;-80
2024/01/27 01:12:54;;;;;;;21.38;3.30;;;3.50;99.90;;;;;;5047551;28;20397;-80
2024/01/27 01:15:20;;;;;;;30.80;3.37;;;3.50;99.90;;;;;;5047674;28;20166;-79
2024/01/27 01:17:46;;;;;;;25.40;2.97;;;3.40;99.90;;;;;;5048064;28;20182;-80
2024/01/27 01:20:12;;;;;;;21.90;3.50;;;3.30;99.90;;;;;;5046305;28;20408;-80
2024/01/27 01:22:37;;;;;;;23.77;3.17;;;3.30;99.90;;;;;;5047305;28;20196;-81
2024/01/27 01:25:03;;;;;;;22.20;3.07;;;3.20;99.90;;;;;;5046750;28;20166;-81
2024/01/27 01:27:29;;;;;;;27.33;3.17;;;3.20;99.90;;;;;;5047545;28;20220;-80
2024/01/27 01:29:54;;;;;;;20.10;2.93;;;3.10;99.90;;;;;;5046904;28;20404;-80
2024/01/27 01:32:20;;;;;;;19.47;4.10;;;3.00;99.90;;;;;;5030151;28;20192;-80
2024/01/27 01:34:46;;;;;;;24.70;3.20;;;3.00;99.90;;;;;;5047503;28;20170;-80
2024/01/27 01:37:13;;;;;;;24.38;3.08;;;3.00;99.90;;;;;;5046557;28;20190;-80
2024/01/27 01:39:39;;;;;;;23.45;3.97;;;3.00;99.90;;;;;;5029230;28;20176;-81
2024/01/27 01:42:04;;;;;;;23.10;4.30;;;2.90;99.90;;;;;;5029607;28;20221;-80
2024/01/27 01:44:34;;;;;;;24.53;3.00;;;2.90;99.90;;;;;;5047450;28;20434;-81
2024/01/27 01:46:59;;;;;;;19.00;3.28;;;2.90;99.90;;;;;;5046988;28;20182;-80
2024/01/27 01:49:26;;;;;;;17.30;2.60;;;3.00;99.90;;;;;;5047382;28;20173;-81
2024/01/27 01:51:52;;;;;;;19.75;3.33;;;3.10;99.90;;;;;;5047430;28;20181;-80
2024/01/27 01:54:18;;;;;;;30.17;3.23;;;3.00;99.90;;;;;;5046539;28;20174;-81
2024/01/27 01:56:43;;;;;;;20.97;3.40;;;3.00;99.90;;;;;;5046022;28;20189;-80
2024/01/27 01:59:09;;;;;;;20.20;3.20;;;3.00;99.90;;;;;;5028815;28;20404;-80
2024/01/27 02:01:35;;;;;;;22.10;3.63;;;3.10;99.90;;;;;;5047390;28;20193;-80
2024/01/27 02:04:00;;;;;;;18.53;3.10;;;3.00;99.90;;;;;;5046844;28;20188;-80
2024/01/27 02:06:26;;;;;;;21.70;3.60;;;3.10;99.90;;;;;;5046184;28;20158;-80
2024/01/27 02:08:52;;;;;;;19.83;2.90;;;3.10;99.90;;;;;;5028307;28;20620;-80
2024/01/27 02:11:17;;;;;;;21.73;3.70;;;3.10;99.90;;;;;;5045930;28;20237;-81
2024/01/27 02:13:43;;;;;;;24.70;3.30;;;3.10;99.90;;;;;;5046220;28;20159;-80
2024/01/27 02:16:09;;;;;;;21.07;3.30;;;3.10;99.90;;;;;;5045749;28;20405;-81
2024/01/27 02:18:35;;;;;;;26.30;2.90;;;3.00;99.90;;;;;;5047474;28;20416;-80
2024/01/27 02:21:01;;;;;;;21.80;3.23;;;3.00;99.90;;;;;;5045778;28;20197;-80
2024/01/27 02:23:26;;;;;;;23.33;3.47;;;3.00;99.90;;;;;;5029099;28;20169;-81
2024/01/27 02:25:52;;;;;;;20.13;3.00;;;3.00;99.90;;;;;;5046520;28;20408;-80
2024/01/27 02:28:18;;;;;;;24.27;3.40;;;3.00;99.90;;;;;;5045916;28;20197;-81
2024/01/27 02:30:44;;;;;;;23.30;3.80;;;3.10;99.90;;;;;;5046064;28;20172;-80
2024/01/27 02:33:10;;;;;;;22.30;3.00;;;3.10;99.90;;;;;;5028701;28;20568;-82
2024/01/27 02:35:36;;;;;;;30.90;3.03;;;3.10;99.90;;;;;;5046118;28;20166;-80
2024/01/27 02:38:01;;;;;;;27.42;3.70;;;3.00;99.90;;;;;;5028474;28;20599;-80
2024/01/27 02:40:27;;;;;;;23.50;3.00;;;3.00;99.90;;;;;;5046972;28;20173;-80
2024/01/27 02:42:53;;;;;;;30.40;3.23;;;2.90;99.90;;;;;;5046788;28;20460;-80
2024/01/27 02:45:19;;;;;;;19.23;3.27;;;2.80;99.90;;;;;;5045604;28;20172;-80
2024/01/27 02:47:45;;;;;;;26.60;3.53;;;2.80;99.90;;;;;;5046051;28;20241;-80
2024/01/27 02:50:11;;;;;;;19.75;2.58;;;2.80;99.90;;;;;;5046301;28;20225;-80
2024/01/27 02:52:36;;;;;;;22.05;3.30;;;2.80;99.90;;;;;;5045741;28;20173;-80
2024/01/27 02:55:02;;;;;;;23.77;3.23;;;2.90;99.90;;;;;;5045752;28;20161;-81
2024/01/27 02:57:28;;;;;;;20.77;2.60;;;2.80;99.90;;;;;;5045436;28;20269;-80
2024/01/27 02:59:54;;;;;;;25.13;4.03;;;2.80;99.90;;;;;;5045905;28;20413;-80
2024/01/27 03:02:19;;;;;;;20.13;3.37;;;2.80;99.90;;;;;;5045560;28;20194;-81
2024/01/27 03:04:45;;;;;;;21.30;2.73;;;2.80;99.90;;;;;;5045274;28;20177;-79
2024/01/27 03:07:11;;;;;;;22.73;4.00;;;2.70;99.90;;;;;;5027352;28;20212;-80
2024/01/27 03:09:36;;;;;;;20.43;3.07;;;2.80;99.90;;;;;;5044877;28;20169;-80
2024/01/27 03:12:02;;;;;;;20.50;2.63;;;2.70;99.90;;;;;;5044382;28;20142;-81
2024/01/27 03:14:29;;;;;;;21.60;3.10;;;2.70;99.90;;;;;;5027142;28;20448;-80
2024/01/27 03:16:54;;;;;;;25.50;3.88;;;2.70;99.90;;;;;;5026138;28;20439;-80
2024/01/27 03:19:20;;;;;;;21.40;2.60;;;2.80;99.90;;;;;;5045197;28;20516;-80
2024/01/27 03:21:46;;;;;;;23.27;2.73;;;2.70;99.90;;;;;;5043761;28;20194;-80
2024/01/27 03:24:11;;;;;;;19.63;2.30;;;2.70;99.90;;;;;;5044046;28;20193;-80
2024/01/27 03:26:37;;;;;;;19.97;2.73;;;2.70;99.90;;;;;;5044056;28;20178;-80
2024/01/27 03:29:03;;;;;;;20.60;3.33;;;2.70;99.90;;;;;;5043426;28;20173;-80
2024/01/27 03:31:33;;;;;;;21.27;3.80;;;2.60;99.90;;;;;;5043078;28;20643;-80
2024/01/27 03:33:59;;;;;;;22.38;2.85;;;2.60;99.90;;;;;;5042364;28;20166;-80
2024/01/27 03:36:25;;;;;;;21.85;3.47;;;2.70;99.90;;;;;;5043360;28;20166;-80
2024/01/27 03:38:51;;;;;;;17.65;2.00;;;2.70;99.90;;;;;;5026187;28;20173;-80
2024/01/27 03:41:17;;;;;;;18.63;2.77;;;2.60;99.90;;;;;;5043158;28;20203;-79
2024/01/27 03:43:42;;;;;;;25.03;3.17;;;2.60;99.90;;;;;;5042412;28;20197;-80
2024/01/27 03:46:08;;;;;;;21.63;2.83;;;2.60;99.90;;;;;;5042842;28;20208;-80
2024/01/27 03:48:36;;;;;;;20.37;3.00;;;2.60;99.90;;;;;;5043238;28;20170;-79
2024/01/27 03:51:03;;;;;;;23.95;2.72;;;2.70;99.90;;;;;;5043561;28;20182;-81
2024/01/27 03:53:29;;;;;;;23.50;2.50;;;2.60;99.90;;;;;;5042836;28;20247;-80
2024/01/27 03:55:58;;;;;;;20.10;2.60;;;2.60;99.90;;;;;;5043370;28;20162;-80
2024/01/27 03:58:24;;;;;;;24.77;2.78;;;2.60;99.90;;;;;;5043048;28;20181;-79
2024/01/27 04:00:50;;;;;;;18.40;4.13;;;2.50;99.90;;;;;;5043112;28;20269;-80
2024/01/27 04:03:15;;;;;;;26.43;3.17;;;2.60;99.90;;;;;;5043060;28;20392;-80
2024/01/27 04:05:41;;;;;;;20.50;2.63;;;2.60;99.90;;;;;;5043551;28;20169;-80
2024/01/27 04:08:07;;;;;;;24.47;3.50;;;2.60;99.90;;;;;;5024683;28;20212;-81
2024/01/27 04:10:32;;;;;;;19.73;3.27;;;2.60;99.90;;;;;;5042440;28;20170;-81
2024/01/27 04:12:58;;;;;;;29.03;3.53;;;2.70;99.90;;;;;;5043065;28;20181;-79
2024/01/27 04:15:25;;;;;;;30.20;3.93;;;2.70;99.90;;;;;;5025678;28;20170;-80
2024/01/27 04:17:50;;;;;;;23.15;2.85;;;2.70;99.90;;;;;;5043342;28;20185;-80
2024/01/27 04:20:16;;;;;;;21.00;3.37;;;2.70;99.90;;;;;;5043534;28;20165;-80
2024/01/27 04:22:42;;;;;;;23.53;2.57;;;2.70;99.90;;;;;;5043099;28;20540;-79
2024/01/27 04:25:08;;;;;;;20.23;2.33;;;2.70;99.90;;;;;;5042985;28;20675;-80
2024/01/27 04:27:39;;;;;;;16.50;2.17;;;2.60;99.90;;;;;;5042836;28;20600;-80
2024/01/27 04:30:06;;;;;;;20.30;2.65;;;2.60;99.90;;;;;;5026143;28;20393;-81
2024/01/27 04:32:36;;;;;;;22.98;3.60;;;2.50;99.90;;;;;;5024965;28;20170;-81
2024/01/27 04:35:03;;;;;;;22.83;2.78;;;2.50;99.90;;;;;;5042624;28;20166;-80
2024/01/27 04:37:28;;;;;;;21.08;2.92;;;2.40;99.90;;;;;;5045071;28;20192;-79
2024/01/27 04:39:54;;;;;;;25.67;3.67;;;2.40;99.90;;;;;;5050034;28;20200;-81
2024/01/27 04:42:21;;;;;;;20.37;2.70;;;2.30;99.90;;;;;;5049833;28;20193;-81
2024/01/27 04:44:47;;;;;;;17.95;3.03;;;2.30;99.90;;;;;;5032084;28;20233;-81
2024/01/27 04:47:12;;;;;;;21.30;2.80;;;2.30;99.90;;;;;;5054847;28;20212;-81
2024/01/27 04:49:38;;;;;;;20.50;3.67;;;2.20;99.90;;;;;;5054782;28;20158;-81
2024/01/27 04:52:04;;;;;;;19.47;2.47;;;2.30;99.90;;;;;;5054507;28;20169;-81
2024/01/27 04:54:29;;;;;;;18.80;2.57;;;2.20;99.90;;;;;;5054545;28;20201;-81
2024/01/27 04:56:55;;;;;;;26.43;2.63;;;2.10;99.90;;;;;;5054897;28;20193;-81
2024/01/27 04:59:20;;;;;;;19.10;2.80;;;2.10;99.90;;;;;;5054567;28;20194;-81
2024/01/27 05:01:46;;;;;;;23.27;2.43;;;1.90;99.90;;;;;;5036677;28;20205;-81
2024/01/27 05:04:12;;;;;;;21.93;2.73;;;1.90;99.90;;;;;;5053632;28;20197;-81
2024/01/27 05:06:41;;;;;;;28.20;2.97;;;1.80;99.90;;;;;;5053356;28;20447;-81
2024/01/27 05:09:07;;;;;;;19.52;3.13;;;1.80;99.90;;;;;;5054145;28;20142;-81
2024/01/27 05:11:36;;;;;;;21.15;2.33;;;1.70;99.90;;;;;;5036090;28;20166;-81
2024/01/27 05:14:02;;;;;;;26.38;2.53;;;1.70;99.90;;;;;;5054357;28;20162;-81
2024/01/27 05:16:28;;;;;;;23.90;3.17;;;1.60;99.90;;;;;;5054047;28;20182;-81
2024/01/27 05:18:54;;;;;;;19.48;2.80;;;1.60;99.90;;;;;;5036404;28;20169;-81
2024/01/27 05:21:20;;;;;;;20.53;2.93;;;1.50;99.90;;;;;;5053442;28;20212;-82
2024/01/27 05:23:45;;;;;;;27.23;4.60;;;1.50;99.90;;;;;;5036382;28;20216;-81
2024/01/27 05:26:11;;;;;;;23.07;3.90;;;1.50;99.90;;;;;;5053780;28;20177;-82
2024/01/27 05:28:39;;;;;;;21.00;3.00;;;1.50;99.90;;;;;;5054364;28;20581;-82
2024/01/27 05:31:08;;;;;;;19.15;3.05;;;1.40;99.90;;;;;;5036618;28;20778;-82
2024/01/27 05:33:34;;;;;;;24.67;3.92;;;1.40;99.90;;;;;;5054183;28;20166;-81
2024/01/27 05:36:00;;;;;;;21.10;3.50;;;1.40;99.90;;;;;;5035924;28;20170;-82
2024/01/27 05:38:26;;;;;;;20.73;3.30;;;1.30;99.90;;;;;;5053733;28;20204;-82
2024/01/27 05:40:51;;;;;;;22.65;4.03;;;1.30;99.90;;;;;;5053258;28;20165;-82
2024/01/27 05:43:17;;;;;;;22.60;4.57;;;1.30;99.90;;;;;;5035829;28;20193;-82
2024/01/27 05:45:45;;;;;;;23.33;4.20;;;1.20;99.90;;;;;;5053271;28;20397;-82
2024/01/27 05:48:10;;;;;;;22.73;5.80;;;1.30;99.90;;;;;;5053411;28;20184;-82
2024/01/27 05:50:36;;;;;;;22.60;5.00;;;1.20;99.90;;;;;;5054090;28;20181;-82
2024/01/27 05:53:01;;;;;;;23.53;5.80;;;1.20;99.90;;;;;;5053737;28;20204;-82
2024/01/27 05:55:27;;;;;;;24.07;6.20;;;1.20;99.90;;;;;;5053663;28;20173;-82
2024/01/27 05:57:55;;;;;;;26.07;6.50;;;1.20;99.90;;;;;;5053920;28;20197;-82
2024/01/27 06:00:21;;;;;;;27.33;6.07;;;1.10;99.90;;;;;;5036197;28;20184;-82
2024/01/27 06:02:46;;;;;;;27.88;7.45;;;1.10;99.90;;;;;;5035951;28;20222;-82
2024/01/27 06:05:12;;;;;;;32.13;7.20;;;1.00;99.90;;;;;;5035985;28;20260;-82
2024/01/27 06:07:39;;;;;;;31.10;5.60;;;1.00;99.90;;;;;;5052871;28;20201;-82
2024/01/27 06:10:08;;;;;;;30.42;5.85;;;0.90;99.90;;;;;;5053152;28;20158;-82
2024/01/27 06:12:34;;;;;;;23.67;5.53;;;0.90;99.90;;;;;;5052995;28;20280;-82
2024/01/27 06:15:00;;;;;;;31.17;6.75;;;1.00;99.90;;;;;;5052739;28;20162;-82
2024/01/27 06:17:25;;;;;;;21.60;6.50;;;0.90;99.90;;;;;;5052811;28;20243;-81
2024/01/27 06:19:51;;;;;;;24.73;6.03;;;1.00;99.90;;;;;;5053323;28;20204;-81
2024/01/27 06:22:17;;;;;;;27.80;5.27;;;1.00;99.90;;;;;;5052403;28;20262;-82
2024/01/27 06:24:45;;;;;;;26.30;7.37;;;1.00;99.90;;;;;;5034561;28;20162;-82
2024/01/27 06:27:11;;;;;;;28.30;5.75;;;1.00;99.90;;;;;;5052539;28;20192;-82
2024/01/27 06:29:38;;;;;;;26.77;5.72;;;0.90;99.90;;;;;;5052995;28;20162;-82
2024/01/27 06:32:04;;;;;;;20.95;4.40;;;1.00;99.90;;;;;;5052043;28;20162;-82
2024/01/27 06:34:29;;;;;;;28.27;4.63;;;1.00;99.90;;;;;;5051946;28;20229;-82
2024/01/27 06:36:55;;;;;;;22.47;4.67;;;1.00;99.90;;;;;;5052428;28;20432;-82
2024/01/27 06:39:21;;;;;;;20.63;3.60;;;0.90;99.90;;;;;;5034876;28;20238;-82
2024/01/27 06:41:47;;;;;;;19.13;3.42;;;1.00;99.90;;;;;;5034849;28;20633;-81
2024/01/27 06:44:13;;;;;;;18.87;3.70;;;1.00;99.90;;;;;;5051846;28;20162;-82
2024/01/27 06:46:38;;;;;;;19.10;3.10;;;1.00;99.90;;;;;;5051980;28;20932;-82
2024/01/27 06:49:04;;;;;;;19.70;3.67;;;1.10;99.90;;;;;;5052238;28;20170;-81
2024/01/27 06:51:29;;;;;;;20.30;3.37;;;1.10;99.90;;;;;;5052446;28;20200;-82
2024/01/27 06:53:55;;;;;;;19.17;3.03;;;1.10;99.90;;;;;;5051859;28;20166;-82
2024/01/27 06:56:21;;;;;;;19.23;2.67;;;1.00;99.90;;;;;;5052451;28;20170;-82
2024/01/27 06:58:46;;;;;;;21.80;4.10;;;1.00;99.90;;;;;;5052515;28;20229;-82
2024/01/27 07:01:12;;;;;;;20.90;3.60;;;1.10;99.90;;;;;;5052404;28;20205;-82
2024/01/27 07:03:39;;;;;;;23.00;4.27;;;1.00;99.90;;;;;;5052842;28;20214;-82
2024/01/27 07:06:05;;;;;;;19.55;3.42;;;1.00;99.90;;;;;;5053096;28;20180;-82
2024/01/27 07:08:32;;;;;;;25.10;4.20;;;0.90;99.90;;;;;;5051879;28;20198;-82
2024/01/27 07:10:58;;;;;;;21.42;3.70;;;0.90;99.90;;;;;;5052912;28;20169;-82
2024/01/27 07:13:24;;;;;;;24.77;4.50;;;0.90;99.90;;;;;;5053856;28;20245;-82
2024/01/27 07:15:49;;;;;;;22.63;4.57;;;0.90;99.90;;;;;;5035332;28;20412;-82
2024/01/27 07:18:17;;;;;;;26.10;4.53;;;0.90;99.90;;;;;;5034949;28;20193;-82
2024/01/27 07:20:43;;;;;;;20.67;3.45;;;0.90;99.90;;;;;;5052634;28;20146;-82
2024/01/27 07:23:08;;;;;;;26.13;4.30;;;1.00;99.90;;;;;;5053269;28;20169;-82
2024/01/27 07:25:34;;;;;;;22.80;4.40;;;1.00;99.90;;;;;;5052156;28;20166;-82
2024/01/27 07:27:59;;;;;;;25.20;4.20;;;1.00;99.90;;;;;;5052593;28;20190;-82
2024/01/27 07:30:25;;;;;;;19.33;4.43;;;0.90;99.90;;;;;;5035136;28;20166;-81
2024/01/27 07:32:53;;;;;;;21.73;4.47;;;0.90;99.90;;;;;;5051942;28;20174;-82
2024/01/27 07:35:19;;;;;;;20.95;3.92;;;0.90;99.90;;;;;;5052643;28;20200;-82
2024/01/27 07:37:45;;;;;;;18.80;3.50;;;0.90;99.90;;;;;;5052835;28;20194;-81
2024/01/27 07:40:11;;;;;;;26.07;4.00;;;0.90;99.90;;;;;;5052535;28;20150;-82
2024/01/27 07:42:37;;;;;;;20.30;4.25;;;0.90;99.90;;;;;;5052236;28;20455;-82
2024/01/27 07:45:03;;;;;;;22.40;3.87;;;0.90;99.90;;;;;;5034928;28;20166;-82
2024/01/27 07:47:28;;;;;;;20.73;4.73;;;0.90;99.90;;;;;;5051452;28;20177;-82
2024/01/27 07:49:54;;;;;;;20.17;4.40;;;0.90;99.90;;;;;;5052553;28;20400;-81
2024/01/27 07:52:20;;;;;;;20.70;4.03;;;0.90;99.90;;;;;;5052043;28;20196;-81
2024/01/27 07:54:46;;;;;;;23.43;3.73;;;0.90;99.90;;;;;;5034534;28;20180;-82
2024/01/27 07:57:12;;;;;;;29.20;4.47;;;1.00;99.90;;;;;;5051778;28;20432;-82
2024/01/27 07:59:38;;;;;;;20.95;3.85;;;1.00;99.90;;;;;;5052970;28;20408;-82
2024/01/27 08:02:04;;;;;;;23.98;4.32;;;1.20;99.90;;;;;;5052536;28;20190;-82
2024/01/27 08:04:29;;;;;;;19.17;3.58;;;1.20;99.90;;;;;;5052850;28;20154;-82
2024/01/27 08:06:55;;;;;;;21.70;3.60;;;1.20;99.90;;;;;;5034221;28;20200;-82
2024/01/27 08:09:21;;;;;;;26.70;3.13;;;1.20;99.90;;;;;;5051631;28;20241;-81
2024/01/27 08:11:51;;;;;;;23.37;3.60;;;1.30;99.90;;;;;;5051868;28;20555;-82
2024/01/27 08:14:17;;;;;;;21.15;2.95;;;1.30;99.90;;;;;;5051968;28;20216;-81
2024/01/27 08:16:43;;;;;;;20.87;3.83;;;1.30;99.90;;;;;;5052018;28;20528;-82
2024/01/27 08:19:08;;;;;;;18.60;2.73;;;1.30;99.90;;;;;;5052698;28;20400;-82
2024/01/27 08:21:34;;;;;;;23.63;3.20;;;1.40;99.90;;;;;;5056769;28;20957;-81
2024/01/27 08:24:00;;;;;;;20.90;3.17;;;1.40;99.90;;;;;;5038840;28;20170;-82
2024/01/27 08:26:25;;;;;;;21.27;3.30;;;1.50;99.90;;;;;;5056374;28;20165;-82
2024/01/27 08:28:51;;;;;;;21.27;2.97;;;1.50;99.90;;;;;;5037366;28;20212;-82
2024/01/27 08:31:18;;;;;;;17.83;3.10;;;1.60;99.90;;;;;;5053192;28;20458;-80
2024/01/27 08:33:44;;;;;;;19.75;2.88;;;1.70;99.90;;;;;;5052513;28;20311;-80
2024/01/27 08:36:14;;;;;;;19.57;2.90;;;1.70;99.90;;;;;;5052215;28;20236;-80
2024/01/27 08:38:39;;;;;;;25.23;3.38;;;1.70;99.90;;;;;;5052202;28;20164;-80
2024/01/27 08:41:05;;;;;;;23.53;4.00;;;1.80;99.90;;;;;;5052432;28;20217;-80
2024/01/27 08:43:33;;;;;;;20.60;3.50;;;1.80;99.90;;;;;;5051906;28;20177;-81
2024/01/27 08:46:00;;;;;;;26.27;4.00;;;1.90;99.90;;;;;;5051288;28;20177;-80
2024/01/27 08:48:26;;;;;;;18.63;3.05;;;1.90;99.90;;;;;;5051157;28;20182;-81
2024/01/27 08:50:51;;;;;;;23.93;4.27;;;2.00;99.90;;;;;;5051127;28;20158;-80
2024/01/27 08:53:17;;;;;;;21.80;3.23;;;2.00;99.90;;;;;;5051386;28;20169;-81
2024/01/27 08:55:42;;;;;;;20.27;3.30;;;2.10;99.90;;;;;;5051564;28;20166;-81
2024/01/27 08:58:08;;;;;;;23.93;3.83;;;2.10;99.90;;;;;;5051015;28;20186;-80
2024/01/27 09:00:34;;;;;;;23.57;3.90;;;2.20;99.90;;;;;;5051204;28;20162;-80
2024/01/27 09:03:03;;;;;;;21.10;4.03;;;2.20;99.90;;;;;;5051056;28;20253;-81
2024/01/27 09:05:28;;;;;;;24.02;3.42;;;2.30;99.90;;;;;;5033934;28;20169;-81
2024/01/27 09:07:54;;;;;;;20.93;3.13;;;2.30;99.90;;;;;;5051598;28;20201;-81
2024/01/27 09:10:20;;;;;;;23.00;3.50;;;2.40;99.90;;;;;;5036429;28;20208;-82
2024/01/27 09:12:45;;;;;;;20.67;3.43;;;2.50;99.90;;;;;;5055690;28;20632;-82
2024/01/27 09:15:11;;;;;;;20.67;4.33;;;2.50;99.90;;;;;;5055203;28;20430;-81
2024/01/27 09:17:37;;;;;;;19.60;3.77;;;2.60;99.90;;;;;;5054957;28;20193;-81
2024/01/27 09:20:03;;;;;;;19.40;3.53;;;2.60;99.90;;;;;;5055344;28;20154;-82
2024/01/27 09:22:29;;;;;;;30.35;4.57;;;2.60;99.90;;;;;;5054387;28;20197;-81
2024/01/27 09:24:55;;;;;;;22.55;4.50;;;2.70;99.90;;;;;;5054585;28;20169;-81
2024/01/27 09:27:20;;;;;;;18.17;3.87;;;2.70;99.90;;;;;;5054719;28;20559;-81
2024/01/27 09:29:46;;;;;;;23.60;4.10;;;2.80;99.90;;;;;;5036515;28;20176;-82
2024/01/27 09:32:12;;;;;;;19.10;2.90;;;2.80;99.90;;;;;;5054470;28;20173;-82
2024/01/27 09:34:38;;;;;;;28.13;4.00;;;2.90;99.90;;;;;;5054614;28;20166;-82
2024/01/27 09:37:04;;;;;;;23.30;3.73;;;2.90;99.90;;;;;;5054819;28;20238;-82
2024/01/27 09:39:30;;;;;;;29.00;4.00;;;3.10;99.90;;;;;;5049905;28;20194;-80
2024/01/27 09:42:01;;;;;;;24.03;3.40;;;3.20;99.90;;;;;;5043800;28;20197;-80
2024/01/27 09:44:28;;;;;;;24.35;4.97;;;3.30;99.90;;;;;;5043712;28;20170;-80
2024/01/27 09:46:56;;;;;;;21.35;3.53;;;3.40;99.90;;;;;;5046589;28;20598;-80
2024/01/27 09:49:24;;;;;;;20.35;4.22;;;3.50;99.90;;;;;;5047504;28;20161;-80
2024/01/27 09:51:50;;;;;;;26.27;4.43;;;3.60;99.90;;;;;;5030196;28;20248;-80
2024/01/27 09:54:16;;;;;;;26.92;3.53;;;3.70;99.90;;;;;;5031602;28;20174;-80
2024/01/27 09:56:43;;;;;;;25.40;3.53;;;3.80;99.90;;;;;;5048649;28;20186;-81
2024/01/27 09:59:10;;;;;;;27.42;5.07;;;3.90;99.90;;;;;;5050301;28;20166;-80
2024/01/27 10:01:36;;;;;;;30.30;3.95;;;4.00;99.90;;;;;;5045288;28;20671;-80
2024/01/27 10:04:02;;;;;;;23.30;4.57;;;4.10;99.90;;;;;;5047764;28;20165;-80
2024/01/27 10:06:28;;;;;;;25.10;3.20;;;4.10;99.90;;;;;;5048573;28;20224;-81
2024/01/27 10:08:55;;;;;;;27.30;5.15;;;4.20;99.90;;;;;;5048798;28;20165;-80
2024/01/27 10:11:22;;;;;;;21.75;4.20;;;4.30;99.90;;;;;;5047161;28;20231;-81
2024/01/27 10:13:59;;;;;;;23.00;2.92;;;4.40;99.90;;;;;;5048435;28;20635;-81
2024/01/27 10:16:26;;;;;;;20.17;3.40;;;4.50;99.90;;;;;;5043174;28;20146;-80
2024/01/27 10:19:02;;;;;;;28.40;4.13;;;4.70;99.90;;;;;;5044443;28;20162;-80
2024/01/27 10:21:27;;;;;;;22.13;3.20;;;4.80;99.90;;;;;;5025738;28;20208;-80
2024/01/27 10:23:53;;;;;;;31.57;4.47;;;4.90;99.90;;;;;;5041732;28;20166;-80
2024/01/27 10:26:19;;;;;;;36.97;5.60;;;5.10;99.90;;;;;;5046005;28;20166;-80
2024/01/27 10:28:57;;;;;;;25.47;4.97;;;5.20;99.90;;;;;;5043481;28;20173;-80
2024/01/27 10:31:33;;;;;;;32.25;4.70;;;5.40;99.90;;;;;;5029277;28;20170;-80
2024/01/27 10:34:01;;;;;;;26.92;4.88;;;5.50;95.60;;;;;;5048427;28;20166;-80
2024/01/27 10:36:38;;;;;;;26.80;5.80;;;5.70;91.80;;;;;;5026854;28;20174;-81
2024/01/27 10:39:20;;;;;;;22.92;3.80;;;5.70;80.50;;;;;;5043051;28;20142;-80
2024/01/27 10:41:48;;;;;;;21.42;4.00;;;5.90;68.60;;;;;;5042515;28;20239;-80
2024/01/27 10:44:18;;;;;;;25.85;4.55;;;5.90;52.40;;;;;;5029422;28;20185;-80
2024/01/27 10:46:48;;;;;;;30.42;4.40;;;6.10;51.70;;;;;;5024136;28;20272;-80
2024/01/27 10:49:16;;;;;;;22.25;4.30;;;6.20;39.40;;;;;;5027412;28;20177;-80
2024/01/27 10:51:46;;;;;;;27.15;4.15;;;6.20;7.40;;;;;;5040962;28;20236;-80
2024/01/27 10:54:22;;;;;;;22.42;4.00;;;6.40;14.10;;;;;;5046258;28;20158;-80
2024/01/27 10:56:50;;;;;;;19.67;3.50;;;6.50;10.20;;;;;;5043525;28;20204;-80
2024/01/27 10:59:19;;;;;;;21.92;3.97;;;6.60;1.00;;;;;;5041552;28;20219;-81
2024/01/27 11:01:46;;;;;;;21.77;3.67;;;6.50;1.00;;;;;;5049484;28;20185;-82
2024/01/27 11:04:14;;;;;;;24.23;3.83;;;6.50;1.00;;;;;;5035593;28;20657;-82
2024/01/27 11:06:42;;;;;;;21.90;3.50;;;6.40;1.00;;;;;;5052194;28;20198;-81
2024/01/27 11:09:09;;;;;;;23.25;4.13;;;6.50;1.00;;;;;;5052781;28;20146;-82
2024/01/27 11:11:35;;;;;;;22.88;3.80;;;6.40;1.00;;;;;;5052841;28;20173;-82
2024/01/27 11:14:01;;;;;;;24.05;2.95;;;6.40;1.00;;;;;;5052600;28;20192;-82
2024/01/27 11:16:29;;;;;;;22.17;3.65;;;6.30;1.00;;;;;;5052376;28;20225;-82
2024/01/27 11:18:55;;;;;;;21.47;3.73;;;6.20;1.00;;;;;;5052682;28;20190;-82
2024/01/27 11:21:21;;;;;;;32.13;5.13;;;6.10;1.00;;;;;;5052883;28;20228;-82
2024/01/27 11:23:47;;;;;;;22.57;3.70;;;6.00;2.60;;;;;;5052637;28;20158;-82
2024/01/27 11:26:19;;;;;;;25.55;3.85;;;6.00;4.50;;;;;;5051815;28;20185;-82
2024/01/27 11:28:45;;;;;;;19.75;3.35;;;6.10;14.30;;;;;;5051747;28;20139;-82
2024/01/27 11:31:11;;;;;;;19.03;3.00;;;6.10;8.50;;;;;;5052028;28;20173;-82
2024/01/27 11:33:46;;;;;;;33.50;3.85;;;6.20;10.30;;;;;;5033977;28;20181;-82
2024/01/27 11:36:38;;;;;;;29.75;4.13;;;6.20;8.80;;;;;;5017333;28;20162;-82
2024/01/27 11:39:04;;;;;;;25.80;5.03;;;6.30;1.00;;;;;;5047429;28;20182;-82
2024/01/27 11:41:30;;;;;;;24.30;3.60;;;6.30;1.00;;;;;;5051982;28;20216;-82
2024/01/27 11:43:59;;;;;;;22.13;3.60;;;6.50;4.20;;;;;;5034685;28;20194;-82
2024/01/27 11:46:25;;;;;;;21.80;4.03;;;6.50;1.00;;;;;;5050578;28;20468;-82
2024/01/27 11:48:51;;;;;;;23.15;4.72;;;6.50;1.00;;;;;;5051033;28;20188;-80
2024/01/27 11:51:19;;;;;;;26.13;4.90;;;6.50;1.00;;;;;;5051378;28;20169;-81
2024/01/27 11:53:45;;;;;;;24.35;4.35;;;6.50;1.00;;;;;;5033118;28;20177;-80
2024/01/27 11:56:11;;;;;;;22.30;3.70;;;6.50;2.50;;;;;;5050626;28;20166;-82
2024/01/27 11:58:36;;;;;;;24.80;4.23;;;6.50;7.90;;;;;;5051238;28;20513;-81
2024/01/27 12:01:02;;;;;;;25.80;4.30;;;6.60;12.30;;;;;;5034074;28;20166;-81
2024/01/27 12:03:29;;;;;;;21.20;3.22;;;6.60;16.40;;;;;;5051063;28;20161;-81
2024/01/27 12:05:55;;;;;;;24.55;3.80;;;6.80;1.00;;;;;;5034274;28;20165;-81
2024/01/27 12:08:21;;;;;;;26.55;5.15;;;6.80;1.00;;;;;;5051210;28;20193;-82
2024/01/27 12:10:46;;;;;;;23.67;5.93;;;6.90;1.00;;;;;;5050776;28;20185;-82
2024/01/27 12:13:12;;;;;;;27.63;4.63;;;7.10;1.00;;;;;;5050977;28;20166;-81
2024/01/27 12:15:38;;;;;;;25.47;4.40;;;7.10;1.00;;;;;;5051338;28;20184;-81
2024/01/27 12:18:07;;;;;;;23.23;4.50;;;7.20;1.00;;;;;;5052204;28;20433;-82
2024/01/27 12:20:32;;;;;;;18.80;3.60;;;7.20;1.00;;;;;;5032847;28;20196;-82
2024/01/27 12:23:05;;;;;;;25.17;4.97;;;7.10;1.00;;;;;;5032454;28;20284;-80
2024/01/27 12:25:31;;;;;;;28.80;4.70;;;7.10;1.00;;;;;;5032458;28;20196;-82
2024/01/27 12:28:00;;;;;;;18.85;3.17;;;7.10;1.00;;;;;;5050136;28;20602;-82
2024/01/27 12:30:26;;;;;;;22.98;4.53;;;7.20;1.00;;;;;;5049010;28;20225;-81
2024/01/27 12:32:52;;;;;;;30.50;4.70;;;7.20;1.00;;;;;;5030717;28;20189;-81
2024/01/27 12:35:18;;;;;;;21.55;4.47;;;7.10;1.00;;;;;;5048861;28;20184;-82
2024/01/27 12:37:44;;;;;;;27.40;4.43;;;7.00;1.00;;;;;;5047871;28;20662;-81
2024/01/27 12:40:20;;;;;;;21.90;3.67;;;7.10;1.00;;;;;;5047810;28;20146;-81
2024/01/27 12:42:46;;;;;;;19.42;3.15;;;7.00;1.00;;;;;;5046058;28;20483;-81
2024/01/27 12:45:12;;;;;;;23.17;3.97;;;7.00;1.00;;;;;;5044508;28;20162;-81